Time;durP1;ratioP1;P1;durP2;ratioP2;P2;SDS_P1;SDS_P2;PMS_P1;PMS_P2;Temp;Humidity;BMP_temperature;BMP_pressure;BME280_temperature;BME280_humidity;BME280_pressure;Samples;Min_cycle;Max_cycle;Signal;HPM_P1;HPM_P2
2021/01/23 00:00:53;;;;;;;5.20;3.10;;;4.80;99.90;;;;;;5075980;28;20061;-68
2021/01/23 00:03:19;;;;;;;4.60;3.03;;;4.90;99.90;;;;;;5075040;28;20502;-68
2021/01/23 00:05:46;;;;;;;5.13;3.15;;;4.80;99.90;;;;;;5067068;28;20052;-68
2021/01/23 00:08:13;;;;;;;4.32;2.63;;;4.80;99.90;;;;;;5065993;28;20054;-69
2021/01/23 00:10:39;;;;;;;5.72;3.17;;;4.80;99.90;;;;;;5074087;28;20052;-69
2021/01/23 00:13:06;;;;;;;4.72;2.60;;;4.80;99.90;;;;;;5063243;28;20051;-68
2021/01/23 00:15:33;;;;;;;4.07;2.72;;;4.80;99.90;;;;;;5075166;28;20478;-68
2021/01/23 00:17:59;;;;;;;4.93;2.90;;;4.80;99.90;;;;;;5065356;28;20127;-68
2021/01/23 00:20:26;;;;;;;7.15;3.47;;;4.70;99.90;;;;;;5075686;28;20091;-69
2021/01/23 00:22:52;;;;;;;6.43;3.60;;;4.70;99.90;;;;;;5067847;28;20052;-68
2021/01/23 00:25:19;;;;;;;5.72;3.53;;;4.70;99.90;;;;;;5073544;28;20052;-68
2021/01/23 00:27:45;;;;;;;6.75;3.47;;;4.70;99.90;;;;;;5062572;28;20387;-69
2021/01/23 00:30:12;;;;;;;6.00;3.95;;;4.60;99.90;;;;;;5074627;28;20056;-68
2021/01/23 00:32:39;;;;;;;7.85;4.32;;;4.60;99.90;;;;;;5062593;28;20045;-68
2021/01/23 00:35:06;;;;;;;7.00;4.10;;;4.50;99.90;;;;;;5071903;28;20048;-68
2021/01/23 00:37:34;;;;;;;7.53;3.80;;;4.40;99.90;;;;;;5067324;28;20048;-68
2021/01/23 00:40:00;;;;;;;6.63;3.75;;;4.40;99.90;;;;;;5066579;28;20044;-67
2021/01/23 00:42:28;;;;;;;6.40;3.88;;;4.30;99.90;;;;;;5060593;28;20130;-68
2021/01/23 00:44:54;;;;;;;5.22;3.25;;;4.20;99.90;;;;;;5066474;28;20052;-67
2021/01/23 00:47:21;;;;;;;5.30;3.60;;;4.20;99.90;;;;;;5054839;28;20063;-69
2021/01/23 00:49:47;;;;;;;5.82;3.97;;;4.10;99.90;;;;;;5091012;28;20486;-67
2021/01/23 00:52:14;;;;;;;5.88;3.33;;;4.20;99.90;;;;;;5080175;28;20037;-68
2021/01/23 00:54:40;;;;;;;5.18;3.10;;;4.10;99.90;;;;;;5074769;28;20040;-69
2021/01/23 00:57:07;;;;;;;5.35;3.22;;;4.10;99.90;;;;;;5075609;28;20045;-68
2021/01/23 00:59:33;;;;;;;4.93;3.03;;;4.00;99.90;;;;;;5074788;28;20067;-69
2021/01/23 01:02:00;;;;;;;4.38;3.00;;;4.00;99.90;;;;;;5064739;28;20040;-67
2021/01/23 01:04:26;;;;;;;5.07;3.17;;;3.90;99.90;;;;;;5063902;28;20143;-67
2021/01/23 01:06:53;;;;;;;6.80;3.58;;;3.90;99.90;;;;;;5068949;28;20056;-67
2021/01/23 01:09:19;;;;;;;5.38;3.03;;;3.80;99.90;;;;;;5064946;28;20055;-67
2021/01/23 01:11:46;;;;;;;6.20;3.40;;;3.80;99.90;;;;;;5066488;28;20379;-67
2021/01/23 01:14:13;;;;;;;5.72;3.28;;;3.80;99.90;;;;;;5065110;28;20512;-69
2021/01/23 01:16:40;;;;;;;5.90;3.30;;;3.80;99.90;;;;;;5071958;28;20422;-68
2021/01/23 01:19:06;;;;;;;6.45;3.17;;;3.80;99.90;;;;;;5060960;28;20049;-68
2021/01/23 01:21:33;;;;;;;6.60;2.97;;;3.80;99.90;;;;;;5051390;28;20064;-69
2021/01/23 01:24:00;;;;;;;7.28;3.08;;;3.80;99.90;;;;;;5070627;28;20055;-68
2021/01/23 01:26:26;;;;;;;5.10;3.10;;;3.80;99.90;;;;;;5062389;28;20423;-68
2021/01/23 01:28:52;;;;;;;5.65;3.08;;;3.80;99.90;;;;;;5067611;28;20040;-68
2021/01/23 01:31:21;;;;;;;4.68;2.92;;;3.80;99.90;;;;;;5064985;28;20040;-68
2021/01/23 01:33:48;;;;;;;5.13;2.90;;;3.80;99.90;;;;;;5070917;28;20051;-68
2021/01/23 01:36:15;;;;;;;5.05;2.97;;;3.70;99.90;;;;;;5064414;28;20052;-68
2021/01/23 01:38:41;;;;;;;5.35;2.95;;;3.80;99.90;;;;;;5053692;28;20045;-68
2021/01/23 01:41:07;;;;;;;5.97;3.10;;;3.80;99.90;;;;;;5065251;28;20053;-67
2021/01/23 01:43:34;;;;;;;4.72;2.50;;;3.80;99.90;;;;;;5055881;28;20045;-68
2021/01/23 01:46:03;;;;;;;5.03;2.90;;;3.80;99.90;;;;;;5084514;28;20048;-67
2021/01/23 01:48:30;;;;;;;5.53;3.22;;;3.80;99.90;;;;;;5080719;28;20491;-67
2021/01/23 01:50:57;;;;;;;6.32;2.85;;;3.80;99.90;;;;;;5090034;28;20479;-67
2021/01/23 01:53:24;;;;;;;5.88;3.10;;;3.80;99.90;;;;;;5073486;28;20052;-68
2021/01/23 01:55:50;;;;;;;4.88;2.90;;;3.80;99.90;;;;;;5036953;28;20049;-67
2021/01/23 01:58:18;;;;;;;5.10;2.95;;;3.80;99.90;;;;;;5070462;28;20398;-67
2021/01/23 02:00:44;;;;;;;5.78;2.97;;;3.80;99.90;;;;;;5066186;28;20841;-67
2021/01/23 02:03:19;;;;;;;5.25;2.85;;;3.80;99.90;;;;;;5059452;28;20040;-67
2021/01/23 02:06:01;;;;;;;4.68;2.70;;;3.80;99.90;;;;;;5065810;28;20521;-67
2021/01/23 02:08:37;;;;;;;5.43;2.92;;;3.80;99.90;;;;;;5072948;28;20048;-67
2021/01/23 02:11:25;;;;;;;5.13;2.90;;;3.80;99.90;;;;;;5071109;28;20045;-67
2021/01/23 02:13:59;;;;;;;4.63;2.67;;;3.70;99.90;;;;;;5064055;28;20045;-67
2021/01/23 02:16:33;;;;;;;4.30;2.30;;;3.70;99.90;;;;;;5065889;28;20078;-67
2021/01/23 02:19:21;;;;;;;4.88;2.78;;;3.70;99.90;;;;;;5052609;28;20048;-67
2021/01/23 02:22:31;;;;;;;6.68;2.95;;;3.60;99.90;;;;;;5070958;28;20482;-67
2021/01/23 02:24:58;;;;;;;5.90;3.10;;;3.60;99.90;;;;;;4982651;28;20061;-66
2021/01/23 02:28:04;;;;;;;6.00;2.83;;;3.60;99.90;;;;;;4992846;28;20054;-67
2021/01/23 02:30:40;;;;;;;6.32;3.70;;;3.50;99.90;;;;;;4981396;28;20460;-66
2021/01/23 02:33:09;;;;;;;6.93;2.92;;;3.50;99.90;;;;;;4996672;28;20069;-67
2021/01/23 02:35:36;;;;;;;6.88;2.70;;;3.50;99.90;;;;;;4988660;28;20084;-68
2021/01/23 02:38:04;;;;;;;4.97;2.97;;;3.40;99.90;;;;;;4996568;28;20515;-67
2021/01/23 02:40:30;;;;;;;5.53;3.08;;;3.40;99.90;;;;;;4975547;28;20050;-68
2021/01/23 02:42:57;;;;;;;6.07;3.42;;;3.30;99.90;;;;;;4992731;28;20061;-67
2021/01/23 02:45:23;;;;;;;5.70;2.92;;;3.30;99.90;;;;;;4990452;28;20523;-66
2021/01/23 02:47:50;;;;;;;7.28;3.20;;;3.20;99.90;;;;;;4988555;28;20904;-67
2021/01/23 02:50:17;;;;;;;7.15;3.70;;;3.10;99.90;;;;;;4988816;28;20132;-66
2021/01/23 02:53:02;;;;;;;5.82;3.20;;;2.90;99.90;;;;;;4998336;28;20046;-66
2021/01/23 02:55:34;;;;;;;5.95;3.38;;;2.60;99.90;;;;;;4989513;28;20125;-66
2021/01/23 02:58:06;;;;;;;5.15;3.25;;;2.40;99.90;;;;;;4988742;28;20045;-66
2021/01/23 03:00:35;;;;;;;5.15;3.38;;;2.20;99.90;;;;;;4989039;28;20548;-66
2021/01/23 03:03:02;;;;;;;6.20;3.55;;;1.90;99.90;;;;;;5067496;28;20056;-66
2021/01/23 03:05:33;;;;;;;5.75;3.45;;;1.80;99.90;;;;;;5082636;28;20044;-66
2021/01/23 03:07:59;;;;;;;5.40;3.55;;;1.60;99.90;;;;;;5070685;28;20051;-66
2021/01/23 03:10:34;;;;;;;7.40;3.80;;;1.50;99.90;;;;;;5083940;28;20056;-66
2021/01/23 03:13:00;;;;;;;6.85;3.80;;;1.50;99.90;;;;;;5064941;28;20051;-66
2021/01/23 03:15:28;;;;;;;5.63;3.67;;;1.30;99.90;;;;;;5083146;28;20044;-67
2021/01/23 03:17:55;;;;;;;5.85;3.60;;;1.20;99.90;;;;;;5071624;28;20048;-66
2021/01/23 03:20:21;;;;;;;8.00;3.85;;;1.20;99.90;;;;;;5084062;28;20083;-67
2021/01/23 03:22:48;;;;;;;5.82;3.85;;;1.20;99.90;;;;;;5074305;28;20044;-67
2021/01/23 03:25:15;;;;;;;5.85;3.20;;;1.10;99.90;;;;;;5078548;28;20491;-66
2021/01/23 03:27:41;;;;;;;6.65;3.80;;;1.10;99.90;;;;;;5067254;28;20488;-65
2021/01/23 03:30:11;;;;;;;4.03;2.72;;;1.10;99.90;;;;;;5063376;28;20049;-65
2021/01/23 03:32:38;;;;;;;5.32;2.90;;;1.10;99.90;;;;;;5075290;28;20044;-66
2021/01/23 03:35:05;;;;;;;4.85;2.92;;;1.10;99.90;;;;;;5087407;28;20776;-66
2021/01/23 03:37:33;;;;;;;3.30;2.13;;;1.10;99.90;;;;;;5093036;28;20047;-65
2021/01/23 03:40:01;;;;;;;3.08;1.85;;;1.00;99.90;;;;;;5094472;28;20078;-67
2021/01/23 03:42:28;;;;;;;2.55;1.58;;;1.00;99.90;;;;;;5077509;28;20522;-67
2021/01/23 03:44:55;;;;;;;3.03;1.58;;;1.00;99.90;;;;;;5066770;28;20155;-66
2021/01/23 03:47:22;;;;;;;2.78;1.42;;;1.00;99.90;;;;;;5073952;28;20052;-68
2021/01/23 03:49:49;;;;;;;2.15;1.20;;;1.00;99.90;;;;;;5072947;28;20072;-66
2021/01/23 03:52:15;;;;;;;2.17;1.20;;;1.00;99.90;;;;;;5074219;28;20402;-66
2021/01/23 03:54:42;;;;;;;3.28;1.10;;;1.00;99.90;;;;;;5073549;28;20044;-66
2021/01/23 03:57:09;;;;;;;1.75;1.05;;;1.00;99.90;;;;;;5073790;28;20051;-66
2021/01/23 03:59:36;;;;;;;1.10;0.90;;;1.00;99.90;;;;;;5055417;28;20059;-67
2021/01/23 04:02:04;;;;;;;1.13;1.00;;;1.00;99.90;;;;;;5069740;28;20410;-65
2021/01/23 04:04:31;;;;;;;1.15;0.90;;;0.90;99.90;;;;;;5064794;28;20072;-67
2021/01/23 04:06:59;;;;;;;0.88;0.85;;;0.90;99.90;;;;;;5076872;28;20060;-67
2021/01/23 04:09:26;;;;;;;0.93;0.80;;;0.90;99.90;;;;;;5079955;28;20055;-66
2021/01/23 04:11:53;;;;;;;0.82;0.70;;;0.90;99.90;;;;;;5072234;28;20083;-67
2021/01/23 04:14:19;;;;;;;1.10;0.90;;;0.90;99.90;;;;;;5073004;28;20077;-67
2021/01/23 04:16:47;;;;;;;0.95;0.85;;;0.90;99.90;;;;;;5072333;28;20052;-66
2021/01/23 04:19:14;;;;;;;1.25;0.80;;;0.90;99.90;;;;;;5083088;28;20549;-67
2021/01/23 04:21:41;;;;;;;1.05;0.80;;;0.90;99.90;;;;;;5061383;28;20512;-65
2021/01/23 04:24:08;;;;;;;0.90;0.85;;;0.90;99.90;;;;;;5074042;28;20120;-65
2021/01/23 04:26:35;;;;;;;2.35;1.00;;;0.90;99.90;;;;;;5072642;28;20052;-66
2021/01/23 04:29:03;;;;;;;0.70;0.70;;;0.90;99.90;;;;;;5077960;28;20490;-67
2021/01/23 04:31:30;;;;;;;1.98;0.80;;;0.90;99.90;;;;;;5059517;28;20384;-68
2021/01/23 04:33:56;;;;;;;0.70;0.70;;;0.90;99.90;;;;;;5063298;28;20410;-68
2021/01/23 04:36:23;;;;;;;1.05;0.80;;;0.90;99.90;;;;;;5076597;28;20049;-65
2021/01/23 04:38:50;;;;;;;0.98;0.90;;;0.90;99.90;;;;;;5058673;28;20044;-67
2021/01/23 04:41:16;;;;;;;0.70;0.70;;;0.90;99.90;;;;;;5061670;28;20048;-67
2021/01/23 04:43:45;;;;;;;0.70;0.70;;;0.90;99.90;;;;;;5072335;28;20048;-67
2021/01/23 04:46:12;;;;;;;0.70;0.70;;;0.90;99.90;;;;;;5073534;28;20044;-67
2021/01/23 04:48:39;;;;;;;0.68;0.60;;;0.80;99.90;;;;;;5081522;28;20059;-66
2021/01/23 04:51:06;;;;;;;0.63;0.63;;;0.80;99.90;;;;;;5055026;28;20131;-67
2021/01/23 04:53:34;;;;;;;1.10;0.60;;;0.90;99.90;;;;;;5092685;28;20044;-67
2021/01/23 04:56:03;;;;;;;0.85;0.80;;;0.80;99.90;;;;;;5091639;28;20044;-66
2021/01/23 04:58:29;;;;;;;0.80;0.80;;;0.90;99.90;;;;;;5092271;28;20063;-68
2021/01/23 05:00:55;;;;;;;1.30;0.90;;;0.80;99.90;;;;;;5092048;28;20532;-69
2021/01/23 05:03:22;;;;;;;0.90;0.80;;;0.80;99.90;;;;;;5073962;28;20048;-67
2021/01/23 05:06:07;;;;;;;1.10;0.90;;;0.80;99.90;;;;;;5076713;28;20045;-68
2021/01/23 05:08:42;;;;;;;0.80;0.80;;;0.90;99.90;;;;;;5076319;28;20055;-68
2021/01/23 05:11:09;;;;;;;1.10;0.93;;;0.90;99.90;;;;;;5074230;28;20124;-68
2021/01/23 05:13:35;;;;;;;1.23;0.90;;;0.90;99.90;;;;;;5077102;28;20067;-66
2021/01/23 05:16:02;;;;;;;1.98;1.10;;;0.80;99.90;;;;;;5083776;28;20629;-68
2021/01/23 05:18:28;;;;;;;2.45;1.17;;;0.80;99.90;;;;;;5071906;28;20041;-66
2021/01/23 05:20:55;;;;;;;1.98;1.17;;;0.80;99.90;;;;;;5071917;28;20405;-67
2021/01/23 05:23:23;;;;;;;1.13;0.85;;;0.80;99.90;;;;;;5071346;28;20052;-67
2021/01/23 05:25:51;;;;;;;1.85;1.10;;;0.90;99.90;;;;;;5071309;28;20040;-65
2021/01/23 05:28:30;;;;;;;2.03;1.10;;;0.90;99.90;;;;;;5074502;28;20045;-68
2021/01/23 05:30:57;;;;;;;2.65;0.90;;;0.80;99.90;;;;;;5083230;28;20050;-66
2021/01/23 05:33:29;;;;;;;1.50;1.00;;;0.90;99.90;;;;;;5078640;28;20048;-66
2021/01/23 05:35:59;;;;;;;1.65;1.08;;;0.90;99.90;;;;;;5084168;28;20502;-66
2021/01/23 05:38:37;;;;;;;1.63;1.05;;;0.90;99.90;;;;;;5057106;28;20049;-67
2021/01/23 05:41:03;;;;;;;1.50;1.00;;;0.90;99.90;;;;;;5050697;28;20041;-68
2021/01/23 05:43:42;;;;;;;1.70;1.08;;;0.90;99.90;;;;;;5052474;28;20055;-67
2021/01/23 05:46:10;;;;;;;4.32;1.40;;;0.90;99.90;;;;;;5079508;28;20062;-66
2021/01/23 05:48:41;;;;;;;1.50;1.10;;;0.90;99.90;;;;;;5090720;28;20486;-67
2021/01/23 05:51:08;;;;;;;2.03;1.20;;;1.00;99.90;;;;;;5090931;28;20052;-66
2021/01/23 05:53:35;;;;;;;2.15;1.20;;;0.90;99.90;;;;;;5091167;28;20479;-66
2021/01/23 05:56:03;;;;;;;2.20;1.30;;;1.00;99.90;;;;;;5090703;28;20131;-67
2021/01/23 05:58:34;;;;;;;2.30;1.35;;;1.00;99.90;;;;;;5091354;28;20058;-66
2021/01/23 06:01:13;;;;;;;1.92;1.30;;;1.00;99.90;;;;;;5082051;28;20414;-69
2021/01/23 06:03:46;;;;;;;2.13;1.45;;;1.00;99.90;;;;;;5065960;28;20135;-66
2021/01/23 06:06:12;;;;;;;2.38;1.38;;;1.00;99.90;;;;;;5085168;28;20060;-66
2021/01/23 06:08:50;;;;;;;3.13;1.70;;;1.00;99.90;;;;;;5085181;28;20048;-67
2021/01/23 06:11:20;;;;;;;2.90;1.55;;;1.00;99.90;;;;;;5086797;28;20044;-67
2021/01/23 06:13:53;;;;;;;2.80;1.80;;;1.00;99.90;;;;;;5077244;28;20123;-66
2021/01/23 06:16:32;;;;;;;3.70;1.88;;;1.00;99.90;;;;;;5087371;28;20052;-65
2021/01/23 06:19:04;;;;;;;2.70;1.63;;;1.00;99.90;;;;;;5071534;28;20044;-66
2021/01/23 06:21:57;;;;;;;3.38;1.80;;;0.90;99.90;;;;;;5076443;28;20052;-65
2021/01/23 06:24:30;;;;;;;2.83;1.60;;;1.00;99.90;;;;;;5041114;28;20056;-67
2021/01/23 06:26:57;;;;;;;2.38;1.63;;;1.00;99.90;;;;;;5070167;28;20045;-66
2021/01/23 06:29:31;;;;;;;4.45;1.77;;;0.90;99.90;;;;;;5073669;28;20119;-67
2021/01/23 06:32:17;;;;;;;3.50;1.70;;;1.00;99.90;;;;;;5075360;28;20119;-64
2021/01/23 06:35:13;;;;;;;3.13;1.92;;;0.90;99.90;;;;;;5064752;28;20079;-66
2021/01/23 06:37:39;;;;;;;3.05;1.90;;;1.00;99.90;;;;;;5071059;28;20471;-67
2021/01/23 06:40:16;;;;;;;3.88;1.98;;;1.00;99.90;;;;;;5056458;28;20049;-68
2021/01/23 06:42:48;;;;;;;3.53;1.90;;;1.00;99.90;;;;;;5067774;28;20406;-67
2021/01/23 06:45:20;;;;;;;5.15;2.10;;;1.00;99.90;;;;;;5069885;28;20050;-67
2021/01/23 06:47:50;;;;;;;3.55;1.90;;;1.00;99.90;;;;;;5070391;28;20490;-67
2021/01/23 06:50:39;;;;;;;3.90;2.30;;;1.00;99.90;;;;;;5071209;28;20048;-67
2021/01/23 06:53:08;;;;;;;4.15;2.60;;;0.90;99.90;;;;;;5073063;28;20049;-65
2021/01/23 06:55:43;;;;;;;4.18;2.47;;;0.90;99.90;;;;;;5069965;28;20052;-65
2021/01/23 06:58:17;;;;;;;5.07;2.85;;;0.90;99.90;;;;;;5073899;28;20410;-66
2021/01/23 07:00:45;;;;;;;6.43;3.20;;;0.90;99.90;;;;;;5074274;28;20079;-66
2021/01/23 07:03:13;;;;;;;4.85;3.15;;;0.90;99.90;;;;;;5081229;28;20048;-66
2021/01/23 07:05:51;;;;;;;5.10;3.17;;;0.90;99.90;;;;;;5082193;28;20048;-67
2021/01/23 07:08:24;;;;;;;5.57;3.38;;;0.90;99.90;;;;;;5084912;28;20050;-67
2021/01/23 07:11:04;;;;;;;6.88;3.70;;;0.90;99.90;;;;;;5091180;28;20071;-66
2021/01/23 07:13:31;;;;;;;6.70;3.78;;;0.90;99.90;;;;;;5077785;28;20406;-67
2021/01/23 07:15:57;;;;;;;6.85;4.13;;;0.80;99.90;;;;;;5085183;28;20059;-67
2021/01/23 07:18:27;;;;;;;6.35;4.13;;;0.90;99.90;;;;;;5049218;28;20052;-66
2021/01/23 07:20:54;;;;;;;6.50;4.05;;;0.90;99.90;;;;;;5090658;28;20087;-66
2021/01/23 07:23:21;;;;;;;7.45;4.35;;;0.90;99.90;;;;;;5080183;28;20430;-66
2021/01/23 07:25:49;;;;;;;12.13;6.35;;;0.90;99.90;;;;;;5090967;28;20122;-69
2021/01/23 07:28:21;;;;;;;8.05;4.70;;;0.90;99.90;;;;;;5085537;28;20398;-68
2021/01/23 07:30:48;;;;;;;9.57;5.60;;;0.90;99.90;;;;;;5079548;28;20529;-68
2021/01/23 07:33:35;;;;;;;7.57;4.95;;;0.90;99.90;;;;;;5079356;28;20044;-65
2021/01/23 07:36:02;;;;;;;9.77;5.60;;;0.90;99.90;;;;;;5064728;28;20064;-68
2021/01/23 07:38:29;;;;;;;11.75;6.53;;;0.90;99.90;;;;;;5088857;28;20055;-67
2021/01/23 07:40:56;;;;;;;10.02;6.20;;;0.90;99.90;;;;;;5083245;28;20071;-68
2021/01/23 07:43:23;;;;;;;9.23;5.25;;;1.00;99.90;;;;;;5062822;28;20045;-66
2021/01/23 07:45:55;;;;;;;8.98;5.82;;;1.00;99.90;;;;;;5072964;28;20057;-68
2021/01/23 07:48:21;;;;;;;9.32;5.38;;;1.00;99.90;;;;;;5073842;28;20535;-66
2021/01/23 07:50:48;;;;;;;7.93;5.35;;;1.10;99.90;;;;;;5056743;28;20043;-67
2021/01/23 07:53:23;;;;;;;9.13;5.68;;;1.10;99.90;;;;;;5059943;28;20048;-67
2021/01/23 07:55:53;;;;;;;7.95;4.93;;;1.00;99.90;;;;;;5055046;28;20044;-68
2021/01/23 07:58:19;;;;;;;8.05;4.65;;;1.10;99.90;;;;;;5060586;28;20048;-68
2021/01/23 08:00:46;;;;;;;9.60;5.10;;;1.10;99.90;;;;;;5060231;28;20045;-67
2021/01/23 08:03:13;;;;;;;7.18;4.55;;;1.10;99.90;;;;;;5055189;28;20486;-69
2021/01/23 08:05:45;;;;;;;7.85;4.95;;;1.20;99.90;;;;;;5067633;28;20048;-67
2021/01/23 08:08:25;;;;;;;8.35;4.75;;;1.20;99.90;;;;;;5076601;28;20052;-68
2021/01/23 08:10:51;;;;;;;8.18;4.88;;;1.20;99.90;;;;;;5081087;28;20051;-67
2021/01/23 08:13:23;;;;;;;8.00;5.03;;;1.20;99.90;;;;;;5075202;28;20056;-67
2021/01/23 08:15:50;;;;;;;8.48;5.05;;;1.30;99.90;;;;;;5083167;28;20088;-67
2021/01/23 08:18:21;;;;;;;7.32;4.50;;;1.30;99.90;;;;;;5075685;28;20051;-66
2021/01/23 08:20:47;;;;;;;8.40;4.68;;;1.30;99.90;;;;;;5081915;28;20058;-69
2021/01/23 08:23:16;;;;;;;7.85;5.20;;;1.30;99.90;;;;;;5071002;28;20080;-67
2021/01/23 08:25:54;;;;;;;9.15;4.78;;;1.30;99.90;;;;;;5080326;28;20059;-66
2021/01/23 08:28:32;;;;;;;9.68;5.10;;;1.30;99.90;;;;;;5061985;28;20080;-67
2021/01/23 08:31:21;;;;;;;9.98;5.32;;;1.30;99.90;;;;;;5059227;28;20041;-66
2021/01/23 08:33:56;;;;;;;8.10;5.32;;;1.40;99.90;;;;;;5075877;28;20047;-66
2021/01/23 08:36:28;;;;;;;9.00;5.10;;;1.40;99.90;;;;;;5072876;28;20500;-66
2021/01/23 08:39:02;;;;;;;10.35;6.10;;;1.40;99.90;;;;;;5075468;28;20080;-67
2021/01/23 08:41:29;;;;;;;9.40;4.80;;;1.50;99.90;;;;;;5069392;28;20087;-66
2021/01/23 08:43:56;;;;;;;10.73;5.75;;;1.50;99.90;;;;;;5069007;28;20052;-70
2021/01/23 08:46:22;;;;;;;9.13;5.72;;;1.50;99.90;;;;;;5076206;28;20383;-67
2021/01/23 08:48:50;;;;;;;11.85;5.95;;;1.50;99.90;;;;;;5072333;28;20517;-66
2021/01/23 08:51:18;;;;;;;11.35;6.25;;;1.50;99.90;;;;;;5071189;28;20048;-64
2021/01/23 08:53:45;;;;;;;11.40;6.05;;;1.60;99.90;;;;;;5072783;28;20040;-65
2021/01/23 08:56:13;;;;;;;12.63;6.18;;;1.60;99.90;;;;;;5073933;28;20044;-66
2021/01/23 08:58:39;;;;;;;9.60;5.72;;;1.60;99.90;;;;;;5074492;28;20052;-65
2021/01/23 09:01:06;;;;;;;12.52;6.35;;;1.70;99.90;;;;;;5071136;28;20049;-66
2021/01/23 09:03:33;;;;;;;12.15;6.25;;;1.70;99.90;;;;;;5085213;28;20386;-68
2021/01/23 09:06:00;;;;;;;10.73;6.45;;;1.80;99.90;;;;;;5070950;28;20507;-66
2021/01/23 09:08:26;;;;;;;12.50;6.60;;;1.80;99.90;;;;;;5077613;28;20379;-65
2021/01/23 09:10:53;;;;;;;9.02;5.05;;;1.90;99.90;;;;;;5082969;28;20051;-65
2021/01/23 09:13:19;;;;;;;12.13;5.72;;;2.10;99.90;;;;;;5075061;28;20044;-65
2021/01/23 09:15:46;;;;;;;9.82;5.00;;;2.10;99.90;;;;;;5080891;28;20049;-65
2021/01/23 09:18:12;;;;;;;9.95;5.43;;;2.20;99.90;;;;;;5074901;28;20060;-65
2021/01/23 09:20:39;;;;;;;10.13;5.35;;;2.30;99.90;;;;;;5075809;28;20117;-65
2021/01/23 09:23:07;;;;;;;7.00;4.57;;;2.50;99.90;;;;;;5074437;28;20438;-64
2021/01/23 09:25:33;;;;;;;7.03;4.32;;;2.60;99.90;;;;;;5072290;28;20051;-66
2021/01/23 09:28:00;;;;;;;8.98;4.43;;;2.70;99.90;;;;;;5071743;28;20052;-67
2021/01/23 09:30:26;;;;;;;8.75;4.60;;;2.80;99.90;;;;;;5074467;28;20414;-67
2021/01/23 09:32:53;;;;;;;9.32;5.47;;;2.70;99.90;;;;;;5071185;28;20127;-66
2021/01/23 09:35:19;;;;;;;11.02;5.57;;;2.60;99.90;;;;;;5071758;28;20048;-66
2021/01/23 09:37:46;;;;;;;12.35;6.65;;;2.60;99.90;;;;;;5070570;28;20057;-65
2021/01/23 09:40:13;;;;;;;11.88;7.07;;;2.60;99.90;;;;;;5071003;28;20044;-65
2021/01/23 09:42:39;;;;;;;11.07;6.60;;;2.60;99.90;;;;;;5070985;28;20129;-66
2021/01/23 09:45:06;;;;;;;19.15;8.50;;;2.60;99.90;;;;;;5064808;28;20502;-67
2021/01/23 09:47:33;;;;;;;16.42;9.63;;;2.70;99.90;;;;;;5058681;28;20048;-67
2021/01/23 09:50:02;;;;;;;17.88;9.93;;;2.70;99.90;;;;;;5067482;28;20080;-65
2021/01/23 09:52:29;;;;;;;16.13;9.68;;;2.80;99.90;;;;;;5072287;28;20118;-67
2021/01/23 09:54:56;;;;;;;18.23;10.00;;;2.90;99.90;;;;;;5071398;28;20079;-67
2021/01/23 09:57:22;;;;;;;16.45;10.02;;;2.90;99.90;;;;;;5071910;28;20052;-66
2021/01/23 09:59:49;;;;;;;17.50;10.75;;;3.00;99.90;;;;;;5070915;28;20059;-66
2021/01/23 10:02:16;;;;;;;16.77;11.15;;;3.10;99.90;;;;;;5067700;28;20504;-65
2021/01/23 10:04:43;;;;;;;17.23;11.15;;;3.10;99.90;;;;;;5078765;28;20136;-68
2021/01/23 10:07:10;;;;;;;22.65;12.02;;;3.10;99.90;;;;;;5077878;28;20132;-67
2021/01/23 10:09:36;;;;;;;22.05;12.80;;;3.10;99.90;;;;;;5073071;28;20059;-66
2021/01/23 10:12:03;;;;;;;22.48;12.82;;;3.10;99.90;;;;;;5070731;28;20417;-66
2021/01/23 10:14:30;;;;;;;19.90;11.82;;;3.10;99.90;;;;;;5072121;28;20486;-66
2021/01/23 10:16:56;;;;;;;24.88;12.60;;;2.90;99.90;;;;;;5071218;28;20046;-67
2021/01/23 10:19:23;;;;;;;18.83;11.70;;;2.90;99.90;;;;;;5071039;28;20057;-67
2021/01/23 10:21:49;;;;;;;25.00;13.02;;;2.90;99.90;;;;;;5070772;28;20051;-67
2021/01/23 10:24:16;;;;;;;20.88;12.18;;;2.90;99.90;;;;;;5071438;28;20490;-67
2021/01/23 10:26:43;;;;;;;22.80;12.80;;;2.80;99.90;;;;;;5084012;28;20048;-66
2021/01/23 10:29:09;;;;;;;21.92;11.93;;;2.90;99.90;;;;;;5069899;28;20400;-66
2021/01/23 10:31:35;;;;;;;22.13;12.15;;;3.00;99.90;;;;;;5070016;28;20368;-65
2021/01/23 10:34:02;;;;;;;24.02;12.55;;;3.00;99.90;;;;;;5051759;28;20041;-66
2021/01/23 10:36:28;;;;;;;23.02;12.68;;;3.00;99.90;;;;;;5070504;28;20049;-67
2021/01/23 10:38:55;;;;;;;25.50;13.13;;;2.90;99.90;;;;;;5069606;28;20048;-66
2021/01/23 10:41:21;;;;;;;27.08;13.38;;;2.90;99.90;;;;;;5067272;28;20387;-65
2021/01/23 10:43:48;;;;;;;24.60;12.52;;;3.00;99.90;;;;;;5069582;28;20049;-66
2021/01/23 10:46:14;;;;;;;23.83;12.55;;;2.90;99.90;;;;;;5068960;28;20507;-66
2021/01/23 10:48:42;;;;;;;23.15;12.85;;;2.90;99.90;;;;;;5072079;28;20525;-66
2021/01/23 10:51:09;;;;;;;23.13;12.90;;;3.00;99.90;;;;;;5052876;28;20044;-66
2021/01/23 10:53:36;;;;;;;23.77;13.27;;;3.00;99.90;;;;;;5070449;28;20045;-68
2021/01/23 10:56:04;;;;;;;23.83;13.25;;;3.00;99.90;;;;;;5070264;28;20063;-67
2021/01/23 10:58:32;;;;;;;25.40;14.82;;;3.10;99.90;;;;;;5071491;28;20057;-67
2021/01/23 11:00:59;;;;;;;26.48;14.05;;;3.20;99.90;;;;;;5071900;28;20521;-67
2021/01/23 11:03:25;;;;;;;27.00;13.68;;;3.20;99.90;;;;;;5067575;28;20064;-67
2021/01/23 11:05:54;;;;;;;24.13;13.85;;;3.30;99.90;;;;;;5062514;28;20135;-68
2021/01/23 11:08:20;;;;;;;29.63;13.73;;;3.20;99.90;;;;;;5071524;28;20045;-67
2021/01/23 11:10:47;;;;;;;25.92;12.82;;;3.30;99.90;;;;;;5086666;28;20048;-67
2021/01/23 11:13:13;;;;;;;25.55;13.10;;;3.30;99.90;;;;;;5071533;28;20045;-67
2021/01/23 11:15:40;;;;;;;29.17;14.20;;;3.30;99.90;;;;;;5082930;28;20040;-67
2021/01/23 11:18:07;;;;;;;23.80;13.48;;;3.40;99.90;;;;;;5051947;28;20046;-67
2021/01/23 11:20:33;;;;;;;23.48;12.45;;;3.40;99.90;;;;;;5062218;28;20056;-67
2021/01/23 11:23:00;;;;;;;25.23;13.80;;;3.50;99.90;;;;;;5073358;28;20078;-67
2021/01/23 11:25:27;;;;;;;23.33;12.80;;;3.50;99.90;;;;;;5077318;28;20498;-67
2021/01/23 11:27:54;;;;;;;23.17;10.85;;;3.60;99.90;;;;;;5061248;28;20137;-68
2021/01/23 11:30:22;;;;;;;24.00;13.30;;;3.50;99.90;;;;;;5063712;28;20047;-66
2021/01/23 11:32:49;;;;;;;20.23;11.50;;;3.70;99.90;;;;;;5079590;28;20048;-67
2021/01/23 11:35:16;;;;;;;21.30;11.77;;;3.90;99.90;;;;;;5073356;28;20051;-66
2021/01/23 11:37:46;;;;;;;21.02;10.55;;;4.20;99.90;;;;;;5078872;28;20044;-66
2021/01/23 11:40:13;;;;;;;20.40;11.23;;;4.50;99.90;;;;;;5073986;28;20048;-66
2021/01/23 11:42:39;;;;;;;19.08;11.18;;;4.70;99.90;;;;;;5073843;28;20056;-67
2021/01/23 11:45:08;;;;;;;20.75;10.90;;;4.90;99.90;;;;;;5072825;28;20072;-66
2021/01/23 11:47:35;;;;;;;19.10;10.35;;;4.90;99.90;;;;;;5073517;28;20425;-65
2021/01/23 11:50:03;;;;;;;16.15;10.05;;;4.90;99.90;;;;;;5079932;28;20079;-66
2021/01/23 11:52:31;;;;;;;15.73;10.18;;;5.00;99.90;;;;;;5071761;28;20044;-65
2021/01/23 11:54:58;;;;;;;18.55;9.75;;;5.10;99.90;;;;;;5081069;28;20045;-67
2021/01/23 11:57:24;;;;;;;21.30;11.45;;;5.30;99.90;;;;;;5089567;28;20055;-67
2021/01/23 11:59:51;;;;;;;15.93;9.75;;;5.50;99.90;;;;;;5066854;28;20222;-65
2021/01/23 12:02:17;;;;;;;17.00;9.70;;;5.40;99.90;;;;;;5063569;28;20061;-66
2021/01/23 12:04:46;;;;;;;15.35;9.32;;;5.30;99.90;;;;;;5087073;28;20098;-67
2021/01/23 12:07:15;;;;;;;14.88;9.57;;;5.40;99.90;;;;;;5082612;28;20051;-66
2021/01/23 12:09:42;;;;;;;12.98;8.57;;;5.50;99.90;;;;;;5083060;28;20040;-65
2021/01/23 12:12:08;;;;;;;14.65;8.00;;;5.50;99.90;;;;;;5077679;28;20047;-66
2021/01/23 12:14:35;;;;;;;13.80;8.93;;;5.60;99.90;;;;;;5067716;28;20048;-67
2021/01/23 12:17:01;;;;;;;13.52;8.55;;;5.40;99.90;;;;;;5076709;28;20063;-67
2021/01/23 12:19:28;;;;;;;17.52;9.32;;;5.30;99.90;;;;;;5076457;28;20144;-67
2021/01/23 12:21:55;;;;;;;14.23;9.02;;;5.30;99.90;;;;;;5078298;28;20491;-68
2021/01/23 12:24:22;;;;;;;17.73;8.48;;;5.20;99.90;;;;;;5066731;28;20040;-68
2021/01/23 12:26:48;;;;;;;15.82;8.93;;;5.10;99.90;;;;;;5077346;28;20053;-68
2021/01/23 12:29:15;;;;;;;14.93;9.48;;;4.90;99.90;;;;;;5076624;28;20048;-67
2021/01/23 12:31:42;;;;;;;15.73;9.52;;;4.80;99.90;;;;;;5076830;28;20132;-67
2021/01/23 12:34:10;;;;;;;13.75;8.75;;;4.70;99.90;;;;;;5057765;28;20163;-67
2021/01/23 12:36:38;;;;;;;15.02;8.52;;;4.50;99.90;;;;;;5073551;28;20510;-67
2021/01/23 12:39:05;;;;;;;12.98;8.68;;;4.50;99.90;;;;;;5070377;28;20135;-67
2021/01/23 12:41:31;;;;;;;12.07;7.80;;;4.40;99.90;;;;;;5067365;28;20053;-67
2021/01/23 12:43:58;;;;;;;18.65;9.63;;;4.40;99.90;;;;;;5072113;28;20052;-67
2021/01/23 12:46:24;;;;;;;16.65;9.02;;;4.40;99.90;;;;;;5070665;28;20048;-67
2021/01/23 12:48:51;;;;;;;13.25;8.25;;;4.50;99.90;;;;;;5072801;28;20151;-66
2021/01/23 12:51:19;;;;;;;13.88;8.57;;;4.80;99.90;;;;;;5071617;28;20041;-66
2021/01/23 12:53:45;;;;;;;13.82;8.15;;;5.30;99.90;;;;;;5073047;28;20058;-67
2021/01/23 12:56:12;;;;;;;12.38;7.65;;;6.00;99.90;;;;;;5071889;28;20044;-67
2021/01/23 12:58:38;;;;;;;21.02;12.90;;;6.70;99.90;;;;;;5072932;28;20059;-66
2021/01/23 13:01:05;;;;;;;13.40;8.57;;;7.10;99.90;;;;;;5072573;28;20060;-67